sensor_id;sensor_type;location;lat;lon;timestamp;P1;P4;P2;P0;N10;N4;N25;N1;N05;TS
78792;SPS30;68134;51.984;5.652;2023-12-20T00:00:20;4.2;4.1;3.9;3.5;;;;5.0;10.0;
78792;SPS30;68134;51.984;5.652;2023-12-20T00:02:49;4.3;4.2;4.0;3.6;;;;5.0;10.0;
78792;SPS30;68134;51.984;5.652;2023-12-20T00:05:17;4.7;4.6;4.4;3.9;;;;5.0;10.0;
78792;SPS30;68134;51.984;5.652;2023-12-20T00:07:46;4.7;4.6;4.3;3.8;;;;5.0;10.0;
78792;SPS30;68134;51.984;5.652;2023-12-20T00:10:14;4.7;4.6;4.3;3.9;;;;6.0;10.0;
78792;SPS30;68134;51.984;5.652;2023-12-20T00:12:43;4.3;4.2;4.0;3.6;;;;6.0;9.0;
78792;SPS30;68134;51.984;5.652;2023-12-20T00:15:12;4.7;4.6;4.3;3.9;;;;6.0;9.0;
78792;SPS30;68134;51.984;5.652;2023-12-20T00:17:40;4.0;3.9;3.6;3.2;;;;6.0;8.0;
78792;SPS30;68134;51.984;5.652;2023-12-20T00:20:09;4.6;4.4;4.1;3.6;;;;6.0;8.0;
78792;SPS30;68134;51.984;5.652;2023-12-20T00:22:38;5.0;4.9;4.6;4.1;;;;6.0;7.0;
78792;SPS30;68134;51.984;5.652;2023-12-20T00:25:07;4.6;4.5;4.3;3.8;;;;6.0;7.0;
78792;SPS30;68134;51.984;5.652;2023-12-20T00:27:36;4.2;4.1;3.9;3.4;;;;6.0;7.0;
78792;SPS30;68134;51.984;5.652;2023-12-20T00:30:05;4.3;4.2;4.0;3.6;;;;6.0;7.0;
78792;SPS30;68134;51.984;5.652;2023-12-20T00:32:34;4.6;4.5;4.3;3.8;;;;6.0;8.0;
78792;SPS30;68134;51.984;5.652;2023-12-20T00:35:03;4.1;3.9;3.6;3.0;;;;6.0;8.0;
78792;SPS30;68134;51.984;5.652;2023-12-20T00:37:32;4.8;4.6;4.2;3.6;;;;6.0;8.0;
78792;SPS30;68134;51.984;5.652;2023-12-20T00:40:01;4.2;4.0;3.6;2.9;;;;6.0;9.0;
78792;SPS30;68134;51.984;5.652;2023-12-20T00:42:30;3.5;3.4;3.1;2.7;;;;6.0;10.0;
78792;SPS30;68134;51.984;5.652;2023-12-20T00:44:59;3.8;3.7;3.4;3.0;;;;6.0;17.0;
78792;SPS30;68134;51.984;5.652;2023-12-20T00:47:29;3.6;3.5;3.2;2.8;;;;6.0;23.0;
78792;SPS30;68134;51.984;5.652;2023-12-20T00:49:59;4.6;4.5;4.1;3.5;;;;6.0;28.0;
78792;SPS30;68134;51.984;5.652;2023-12-20T00:52:29;4.5;4.3;4.0;3.5;;;;6.0;30.0;
78792;SPS30;68134;51.984;5.652;2023-12-20T00:55:00;3.9;3.8;3.5;3.0;;;;6.0;28.0;
78792;SPS30;68134;51.984;5.652;2023-12-20T00:57:30;4.6;4.4;4.0;3.4;;;;6.0;25.0;
78792;SPS30;68134;51.984;5.652;2023-12-20T00:59:58;4.4;4.3;4.0;3.4;;;;6.0;23.0;
78792;SPS30;68134;51.984;5.652;2023-12-20T01:02:27;4.1;4.0;3.7;3.3;;;;6.0;21.0;
78792;SPS30;68134;51.984;5.652;2023-12-20T01:04:58;4.5;4.3;4.0;3.4;;;;6.0;19.0;
78792;SPS30;68134;51.984;5.652;2023-12-20T01:07:27;4.5;4.3;4.0;3.5;;;;6.0;17.0;
78792;SPS30;68134;51.984;5.652;2023-12-20T01:09:55;4.0;3.9;3.7;3.2;;;;7.0;16.0;
78792;SPS30;68134;51.984;5.652;2023-12-20T01:12:24;4.7;4.5;4.2;3.7;;;;7.0;14.0;
78792;SPS30;68134;51.984;5.652;2023-12-20T01:14:52;3.9;3.8;3.5;3.1;;;;7.0;13.0;
78792;SPS30;68134;51.984;5.652;2023-12-20T01:17:21;4.3;4.1;3.8;3.2;;;;7.0;13.0;
78792;SPS30;68134;51.984;5.652;2023-12-20T01:19:49;3.9;3.8;3.6;3.2;;;;7.0;13.0;
78792;SPS30;68134;51.984;5.652;2023-12-20T01:22:18;4.2;4.0;3.8;3.3;;;;7.0;13.0;
78792;SPS30;68134;51.984;5.652;2023-12-20T01:24:47;4.1;4.0;3.6;3.0;;;;7.0;14.0;
78792;SPS30;68134;51.984;5.652;2023-12-20T01:27:15;4.3;4.1;3.7;3.1;;;;7.0;15.0;
78792;SPS30;68134;51.984;5.652;2023-12-20T01:29:45;3.9;3.8;3.4;2.9;;;;7.0;15.0;
78792;SPS30;68134;51.984;5.652;2023-12-20T01:32:15;3.5;3.4;3.1;2.6;;;;8.0;15.0;
78792;SPS30;68134;51.984;5.652;2023-12-20T01:34:44;3.8;3.6;3.2;2.6;;;;8.0;15.0;
78792;SPS30;68134;51.984;5.652;2023-12-20T01:37:14;4.2;4.0;3.5;2.7;;;;8.0;15.0;
78792;SPS30;68134;51.984;5.652;2023-12-20T01:39:43;4.0;3.8;3.2;2.5;;;;8.0;14.0;
78792;SPS30;68134;51.984;5.652;2023-12-20T01:42:11;4.2;4.0;3.4;2.6;;;;8.0;13.0;
78792;SPS30;68134;51.984;5.652;2023-12-20T01:44:40;4.8;4.6;4.1;3.2;;;;8.0;13.0;
78792;SPS30;68134;51.984;5.652;2023-12-20T01:47:09;3.6;3.4;3.0;2.4;;;;8.0;13.0;
78792;SPS30;68134;51.984;5.652;2023-12-20T01:49:38;4.7;4.4;3.9;3.1;;;;8.0;13.0;
78792;SPS30;68134;51.984;5.652;2023-12-20T01:52:09;4.9;4.6;4.0;3.1;;;;8.0;13.0;
78792;SPS30;68134;51.984;5.652;2023-12-20T01:54:38;4.0;3.8;3.3;2.5;;;;8.0;13.0;
78792;SPS30;68134;51.984;5.652;2023-12-20T01:57:08;4.9;4.6;3.9;3.0;;;;8.0;12.0;
78792;SPS30;68134;51.984;5.652;2023-12-20T01:59:38;4.4;4.1;3.6;2.8;;;;9.0;12.0;
78792;SPS30;68134;51.984;5.652;2023-12-20T02:02:08;4.6;4.3;3.7;2.8;;;;9.0;12.0;
78792;SPS30;68134;51.984;5.652;2023-12-20T02:04:38;4.6;4.3;3.6;2.7;;;;9.0;12.0;
78792;SPS30;68134;51.984;5.652;2023-12-20T02:07:07;4.1;3.8;3.3;2.5;;;;9.0;13.0;
78792;SPS30;68134;51.984;5.652;2023-12-20T02:09:37;4.6;4.3;3.7;2.8;;;;9.0;15.0;
78792;SPS30;68134;51.984;5.652;2023-12-20T02:12:07;4.9;4.6;3.9;3.0;;;;9.0;18.0;
78792;SPS30;68134;51.984;5.652;2023-12-20T02:14:36;4.9;4.6;3.9;2.9;;;;9.0;24.0;
78792;SPS30;68134;51.984;5.652;2023-12-20T02:17:05;4.9;4.5;3.8;2.8;;;;8.0;29.0;
78792;SPS30;68134;51.984;5.652;2023-12-20T02:19:34;3.8;3.6;3.2;2.5;;;;8.0;30.0;
78792;SPS30;68134;51.984;5.652;2023-12-20T02:22:09;5.0;4.7;4.1;3.2;;;;8.0;31.0;
78792;SPS30;68134;51.984;5.652;2023-12-20T02:24:39;5.6;5.2;4.5;3.4;;;;8.0;31.0;
78792;SPS30;68134;51.984;5.652;2023-12-20T02:27:08;5.3;4.9;4.1;2.9;;;;8.0;31.0;
78792;SPS30;68134;51.984;5.652;2023-12-20T02:29:36;4.5;4.2;3.4;2.4;;;;8.0;30.0;
78792;SPS30;68134;51.984;5.652;2023-12-20T02:32:05;5.8;5.3;4.4;3.1;;;;8.0;29.0;
78792;SPS30;68134;51.984;5.652;2023-12-20T02:34:34;4.8;4.4;3.7;2.7;;;;8.0;26.0;
78792;SPS30;68134;51.984;5.652;2023-12-20T02:37:03;4.2;3.9;3.3;2.4;;;;7.0;23.0;
78792;SPS30;68134;51.984;5.652;2023-12-20T02:39:31;5.0;4.6;3.8;2.7;;;;7.0;20.0;
78792;SPS30;68134;51.984;5.652;2023-12-20T02:42:02;4.8;4.5;3.7;2.7;;;;7.0;19.0;
78792;SPS30;68134;51.984;5.652;2023-12-20T02:44:33;5.6;5.2;4.3;3.1;;;;7.0;18.0;
78792;SPS30;68134;51.984;5.652;2023-12-20T02:47:02;6.0;5.6;4.7;3.4;;;;7.0;17.0;
78792;SPS30;68134;51.984;5.652;2023-12-20T02:49:31;5.3;4.9;4.1;2.9;;;;7.0;17.0;
78792;SPS30;68134;51.984;5.652;2023-12-20T02:52:00;5.2;4.8;4.1;3.0;;;;7.0;16.0;
78792;SPS30;68134;51.984;5.652;2023-12-20T02:54:28;5.1;4.7;4.0;2.9;;;;7.0;17.0;
78792;SPS30;68134;51.984;5.652;2023-12-20T02:56:57;4.6;4.3;3.7;2.7;;;;7.0;17.0;
78792;SPS30;68134;51.984;5.652;2023-12-20T02:59:25;5.0;4.8;4.2;3.3;;;;7.0;18.0;
78792;SPS30;68134;51.984;5.652;2023-12-20T03:01:54;5.1;4.7;4.0;3.0;;;;7.0;18.0;
78792;SPS30;68134;51.984;5.652;2023-12-20T03:04:22;5.6;5.2;4.4;3.3;;;;7.0;18.0;
78792;SPS30;68134;51.984;5.652;2023-12-20T03:06:53;5.8;5.4;4.5;3.3;;;;7.0;17.0;
78792;SPS30;68134;51.984;5.652;2023-12-20T03:09:22;6.1;5.6;4.8;3.5;;;;7.0;17.0;
78792;SPS30;68134;51.984;5.652;2023-12-20T03:11:50;5.7;5.2;4.3;3.1;;;;7.0;17.0;
78792;SPS30;68134;51.984;5.652;2023-12-20T03:14:19;6.3;5.9;4.9;3.6;;;;7.0;17.0;
78792;SPS30;68134;51.984;5.652;2023-12-20T03:16:48;5.7;5.3;4.5;3.3;;;;7.0;16.0;
78792;SPS30;68134;51.984;5.652;2023-12-20T03:19:18;5.6;5.2;4.4;3.2;;;;7.0;15.0;
78792;SPS30;68134;51.984;5.652;2023-12-20T03:21:47;5.3;4.9;4.2;3.2;;;;7.0;15.0;
78792;SPS30;68134;51.984;5.652;2023-12-20T03:24:15;4.7;4.4;3.8;2.9;;;;7.0;14.0;
78792;SPS30;68134;51.984;5.652;2023-12-20T03:26:44;5.4;5.1;4.4;3.3;;;;7.0;14.0;
78792;SPS30;68134;51.984;5.652;2023-12-20T03:29:12;4.8;4.5;3.9;2.9;;;;7.0;14.0;
78792;SPS30;68134;51.984;5.652;2023-12-20T03:31:41;6.1;5.7;4.9;3.8;;;;7.0;14.0;
78792;SPS30;68134;51.984;5.652;2023-12-20T03:34:10;5.8;5.4;4.6;3.4;;;;7.0;15.0;
78792;SPS30;68134;51.984;5.652;2023-12-20T03:36:38;5.7;5.3;4.5;3.4;;;;7.0;15.0;
78792;SPS30;68134;51.984;5.652;2023-12-20T03:39:07;7.0;6.4;5.3;3.7;;;;7.0;16.0;
78792;SPS30;68134;51.984;5.652;2023-12-20T03:41:36;5.8;5.4;4.5;3.3;;;;7.0;17.0;
78792;SPS30;68134;51.984;5.652;2023-12-20T03:44:05;5.8;5.4;4.6;3.5;;;;7.0;17.0;
78792;SPS30;68134;51.984;5.652;2023-12-20T03:46:33;5.0;4.7;4.1;3.3;;;;7.0;18.0;
78792;SPS30;68134;51.984;5.652;2023-12-20T03:49:02;6.6;6.2;5.2;3.9;;;;7.0;19.0;
78792;SPS30;68134;51.984;5.652;2023-12-20T03:51:31;5.2;4.9;4.2;3.3;;;;7.0;20.0;
78792;SPS30;68134;51.984;5.652;2023-12-20T03:54:00;5.3;5.0;4.4;3.4;;;;7.0;20.0;
78792;SPS30;68134;51.984;5.652;2023-12-20T03:56:29;5.8;5.5;4.7;3.6;;;;7.0;21.0;
78792;SPS30;68134;51.984;5.652;2023-12-20T03:58:57;5.7;5.3;4.6;3.6;;;;7.0;22.0;
78792;SPS30;68134;51.984;5.652;2023-12-20T04:01:28;6.8;6.3;5.3;4.0;;;;7.0;22.0;
78792;SPS30;68134;51.984;5.652;2023-12-20T04:03:57;5.5;5.1;4.3;3.1;;;;7.0;22.0;
78792;SPS30;68134;51.984;5.652;2023-12-20T04:06:25;6.1;5.6;4.7;3.3;;;;7.0;21.0;
78792;SPS30;68134;51.984;5.652;2023-12-20T04:08:54;7.2;6.6;5.4;3.7;;;;7.0;18.0;
78792;SPS30;68134;51.984;5.652;2023-12-20T04:11:22;7.5;6.8;5.4;3.5;;;;7.0;17.0;
78792;SPS30;68134;51.984;5.652;2023-12-20T04:13:51;7.3;6.7;5.4;3.7;;;;7.0;16.0;
78792;SPS30;68134;51.984;5.652;2023-12-20T04:16:20;8.3;7.5;5.9;3.8;;;;7.0;15.0;
78792;SPS30;68134;51.984;5.652;2023-12-20T04:18:49;7.6;6.9;5.5;3.6;;;;7.0;15.0;
78792;SPS30;68134;51.984;5.652;2023-12-20T04:21:17;7.1;6.5;5.3;3.6;;;;7.0;14.0;
78792;SPS30;68134;51.984;5.652;2023-12-20T04:23:46;5.3;4.9;4.0;2.8;;;;7.0;14.0;
78792;SPS30;68134;51.984;5.652;2023-12-20T04:26:14;6.2;5.7;4.7;3.3;;;;7.0;14.0;
78792;SPS30;68134;51.984;5.652;2023-12-20T04:28:43;5.9;5.4;4.3;2.9;;;;7.0;15.0;
78792;SPS30;68134;51.984;5.652;2023-12-20T04:31:14;6.8;6.2;5.0;3.4;;;;7.0;17.0;
78792;SPS30;68134;51.984;5.652;2023-12-20T04:33:42;7.3;6.7;5.4;3.6;;;;7.0;20.0;
78792;SPS30;68134;51.984;5.652;2023-12-20T04:36:11;6.6;6.1;4.9;3.3;;;;7.0;22.0;
78792;SPS30;68134;51.984;5.652;2023-12-20T04:38:40;6.7;6.1;4.9;3.2;;;;7.0;25.0;
78792;SPS30;68134;51.984;5.652;2023-12-20T04:41:08;6.7;6.1;4.9;3.2;;;;7.0;24.0;
78792;SPS30;68134;51.984;5.652;2023-12-20T04:43:37;6.6;6.1;4.8;3.2;;;;7.0;24.0;
78792;SPS30;68134;51.984;5.652;2023-12-20T04:46:06;7.7;7.0;5.5;3.5;;;;7.0;24.0;
78792;SPS30;68134;51.984;5.652;2023-12-20T04:48:34;8.4;7.6;5.9;3.6;;;;7.0;23.0;
78792;SPS30;68134;51.984;5.652;2023-12-20T04:51:03;8.1;7.3;5.7;3.4;;;;7.0;22.0;
78792;SPS30;68134;51.984;5.652;2023-12-20T04:53:32;8.3;7.5;5.9;3.6;;;;7.0;20.0;
78792;SPS30;68134;51.984;5.652;2023-12-20T04:56:03;7.2;6.5;5.1;3.1;;;;6.0;18.0;
78792;SPS30;68134;51.984;5.652;2023-12-20T04:58:31;7.1;6.5;5.0;3.1;;;;6.0;17.0;
78792;SPS30;68134;51.984;5.652;2023-12-20T05:01:02;8.7;7.9;6.0;3.6;;;;7.0;16.0;
78792;SPS30;68134;51.984;5.652;2023-12-20T05:03:32;6.7;6.1;4.8;3.1;;;;7.0;16.0;
78792;SPS30;68134;51.984;5.652;2023-12-20T05:06:01;6.8;6.2;5.0;3.3;;;;7.0;16.0;
78792;SPS30;68134;51.984;5.652;2023-12-20T05:08:30;6.7;6.1;4.8;3.0;;;;7.0;16.0;
78792;SPS30;68134;51.984;5.652;2023-12-20T05:10:58;7.2;6.5;5.1;3.2;;;;7.0;16.0;
78792;SPS30;68134;51.984;5.652;2023-12-20T05:13:27;6.8;6.1;4.8;3.0;;;;7.0;16.0;
78792;SPS30;68134;51.984;5.652;2023-12-20T05:15:56;7.6;6.9;5.3;3.3;;;;7.0;15.0;
78792;SPS30;68134;51.984;5.652;2023-12-20T05:18:25;6.6;6.0;4.8;3.1;;;;7.0;15.0;
78792;SPS30;68134;51.984;5.652;2023-12-20T05:20:55;6.9;6.2;4.9;3.1;;;;7.0;15.0;
78792;SPS30;68134;51.984;5.652;2023-12-20T05:23:24;7.2;6.5;5.1;3.2;;;;7.0;16.0;
78792;SPS30;68134;51.984;5.652;2023-12-20T05:25:52;6.8;6.2;4.9;3.2;;;;7.0;17.0;
78792;SPS30;68134;51.984;5.652;2023-12-20T05:28:21;6.9;6.3;5.0;3.3;;;;7.0;19.0;
78792;SPS30;68134;51.984;5.652;2023-12-20T05:30:52;7.6;6.9;5.4;3.5;;;;6.0;20.0;
78792;SPS30;68134;51.984;5.652;2023-12-20T05:33:21;7.1;6.4;5.1;3.3;;;;6.0;22.0;
78792;SPS30;68134;51.984;5.652;2023-12-20T05:35:50;7.3;6.6;5.2;3.3;;;;6.0;22.0;
78792;SPS30;68134;51.984;5.652;2023-12-20T05:38:19;7.3;6.6;5.2;3.3;;;;6.0;22.0;
78792;SPS30;68134;51.984;5.652;2023-12-20T05:40:50;7.3;6.6;5.1;3.1;;;;6.0;24.0;
78792;SPS30;68134;51.984;5.652;2023-12-20T05:43:18;6.8;6.2;4.9;3.1;;;;6.0;26.0;
78792;SPS30;68134;51.984;5.652;2023-12-20T05:45:47;7.0;6.4;5.1;3.3;;;;6.0;26.0;
78792;SPS30;68134;51.984;5.652;2023-12-20T05:48:15;6.6;6.0;4.8;3.2;;;;6.0;26.0;
78792;SPS30;68134;51.984;5.652;2023-12-20T05:50:44;7.2;6.6;5.2;3.4;;;;6.0;26.0;
78792;SPS30;68134;51.984;5.652;2023-12-20T05:53:12;6.8;6.1;4.9;3.1;;;;6.0;27.0;
78792;SPS30;68134;51.984;5.652;2023-12-20T05:55:41;6.9;6.2;4.8;3.0;;;;6.0;28.0;
78792;SPS30;68134;51.984;5.652;2023-12-20T05:58:10;6.6;6.0;4.7;2.9;;;;6.0;28.0;
78792;SPS30;68134;51.984;5.652;2023-12-20T06:00:38;6.5;5.9;4.7;3.0;;;;6.0;28.0;
78792;SPS30;68134;51.984;5.652;2023-12-20T06:03:07;8.2;7.4;5.8;3.6;;;;6.0;27.0;
78792;SPS30;68134;51.984;5.652;2023-12-20T06:05:36;7.5;6.8;5.3;3.3;;;;6.0;27.0;
78792;SPS30;68134;51.984;5.652;2023-12-20T06:08:04;7.4;6.7;5.3;3.3;;;;6.0;26.0;
78792;SPS30;68134;51.984;5.652;2023-12-20T06:10:33;7.9;7.1;5.5;3.3;;;;6.0;23.0;
78792;SPS30;68134;51.984;5.652;2023-12-20T06:13:02;7.7;7.0;5.5;3.5;;;;6.0;21.0;
78792;SPS30;68134;51.984;5.652;2023-12-20T06:15:32;8.2;7.4;5.8;3.6;;;;6.0;22.0;
78792;SPS30;68134;51.984;5.652;2023-12-20T06:18:01;7.8;7.1;5.6;3.6;;;;6.0;24.0;
78792;SPS30;68134;51.984;5.652;2023-12-20T06:20:30;6.1;5.6;4.4;2.9;;;;6.0;25.0;
78792;SPS30;68134;51.984;5.652;2023-12-20T06:22:58;8.0;7.3;5.7;3.7;;;;6.0;25.0;
78792;SPS30;68134;51.984;5.652;2023-12-20T06:25:27;9.4;8.5;6.5;4.0;;;;6.0;26.0;
78792;SPS30;68134;51.984;5.652;2023-12-20T06:27:55;7.6;6.9;5.4;3.4;;;;5.0;29.0;
78792;SPS30;68134;51.984;5.652;2023-12-20T06:30:24;6.9;6.3;4.9;3.1;;;;5.0;31.0;
78792;SPS30;68134;51.984;5.652;2023-12-20T06:32:53;8.3;7.6;6.0;3.8;;;;5.0;34.0;
78792;SPS30;68134;51.984;5.652;2023-12-20T06:35:23;7.3;6.6;5.2;3.3;;;;5.0;34.0;
78792;SPS30;68134;51.984;5.652;2023-12-20T06:37:52;7.0;6.4;5.1;3.4;;;;5.0;35.0;
78792;SPS30;68134;51.984;5.652;2023-12-20T06:40:21;7.6;7.0;5.5;3.6;;;;5.0;35.0;
78792;SPS30;68134;51.984;5.652;2023-12-20T06:42:50;7.9;7.2;5.6;3.6;;;;5.0;35.0;
78792;SPS30;68134;51.984;5.652;2023-12-20T06:45:18;8.4;7.6;5.9;3.6;;;;5.0;34.0;
78792;SPS30;68134;51.984;5.652;2023-12-20T06:47:49;6.3;5.7;4.5;2.8;;;;5.0;36.0;
78792;SPS30;68134;51.984;5.652;2023-12-20T06:50:17;6.4;5.9;4.7;3.1;;;;5.0;38.0;
78792;SPS30;68134;51.984;5.652;2023-12-20T06:52:46;5.9;5.4;4.3;2.9;;;;5.0;42.0;
78792;SPS30;68134;51.984;5.652;2023-12-20T06:55:15;7.6;7.0;5.6;3.8;;;;5.0;49.0;
78792;SPS30;68134;51.984;5.652;2023-12-20T06:57:43;8.4;7.7;6.1;4.0;;;;5.0;49.0;
78792;SPS30;68134;51.984;5.652;2023-12-20T07:00:13;6.8;6.2;5.0;3.4;;;;5.0;53.0;
78792;SPS30;68134;51.984;5.652;2023-12-20T07:02:42;7.1;6.5;5.3;3.6;;;;5.0;61.0;
78792;SPS30;68134;51.984;5.652;2023-12-20T07:05:13;7.3;6.7;5.4;3.7;;;;5.0;64.0;
78792;SPS30;68134;51.984;5.652;2023-12-20T07:07:46;7.6;6.9;5.4;3.4;;;;5.0;69.0;
78792;SPS30;68134;51.984;5.652;2023-12-20T07:10:14;8.6;7.8;6.0;3.7;;;;4.0;71.0;
78792;SPS30;68134;51.984;5.652;2023-12-20T07:12:43;8.0;7.3;5.8;3.8;;;;4.0;72.0;
78792;SPS30;68134;51.984;5.652;2023-12-20T07:15:12;7.3;6.7;5.5;3.8;;;;4.0;75.0;
78792;SPS30;68134;51.984;5.652;2023-12-20T07:17:41;6.7;6.1;5.0;3.5;;;;4.0;77.0;
78792;SPS30;68134;51.984;5.652;2023-12-20T07:20:12;7.5;6.9;5.6;3.8;;;;4.0;78.0;
78792;SPS30;68134;51.984;5.652;2023-12-20T07:22:43;6.3;5.8;4.9;3.6;;;;4.0;94.0;
78792;SPS30;68134;51.984;5.652;2023-12-20T07:25:12;6.7;6.2;5.1;3.5;;;;4.0;94.0;
78792;SPS30;68134;51.984;5.652;2023-12-20T07:27:40;7.7;7.1;5.7;3.9;;;;4.0;101.0;
78792;SPS30;68134;51.984;5.652;2023-12-20T07:30:10;6.7;6.1;4.8;3.0;;;;4.0;100.0;
78792;SPS30;68134;51.984;5.652;2023-12-20T07:32:39;7.3;6.7;5.3;3.4;;;;4.0;97.0;
78792;SPS30;68134;51.984;5.652;2023-12-20T07:35:08;8.6;7.8;6.2;4.0;;;;4.0;95.0;
78792;SPS30;68134;51.984;5.652;2023-12-20T07:37:37;7.0;6.4;5.2;3.5;;;;4.0;94.0;
78792;SPS30;68134;51.984;5.652;2023-12-20T07:40:06;7.2;6.6;5.3;3.5;;;;4.0;91.0;
78792;SPS30;68134;51.984;5.652;2023-12-20T07:42:36;7.6;7.0;5.6;3.7;;;;4.0;89.0;
78792;SPS30;68134;51.984;5.652;2023-12-20T07:45:05;8.0;7.3;5.9;4.0;;;;3.0;92.0;
78792;SPS30;68134;51.984;5.652;2023-12-20T07:47:34;7.0;6.4;5.3;3.7;;;;3.0;90.0;
78792;SPS30;68134;51.984;5.652;2023-12-20T07:50:02;7.5;6.9;5.7;4.0;;;;3.0;87.0;
78792;SPS30;68134;51.984;5.652;2023-12-20T07:52:32;5.9;5.5;4.5;3.2;;;;3.0;84.0;
78792;SPS30;68134;51.984;5.652;2023-12-20T07:55:00;8.1;7.4;5.9;4.0;;;;3.0;85.0;
78792;SPS30;68134;51.984;5.652;2023-12-20T07:57:30;7.0;6.5;5.3;3.6;;;;3.0;87.0;
78792;SPS30;68134;51.984;5.652;2023-12-20T07:59:59;7.9;7.2;5.8;3.9;;;;3.0;86.0;
78792;SPS30;68134;51.984;5.652;2023-12-20T08:02:29;7.4;6.8;5.5;3.8;;;;3.0;85.0;
78792;SPS30;68134;51.984;5.652;2023-12-20T08:04:58;6.8;6.2;5.0;3.4;;;;3.0;85.0;
78792;SPS30;68134;51.984;5.652;2023-12-20T08:07:27;6.7;6.2;5.0;3.4;;;;3.0;85.0;
78792;SPS30;68134;51.984;5.652;2023-12-20T08:09:55;8.6;7.9;6.4;4.3;;;;3.0;84.0;
78792;SPS30;68134;51.984;5.652;2023-12-20T08:12:24;6.9;6.3;5.1;3.5;;;;3.0;82.0;
78792;SPS30;68134;51.984;5.652;2023-12-20T08:14:54;7.8;7.2;5.8;3.9;;;;3.0;77.0;
78792;SPS30;68134;51.984;5.652;2023-12-20T08:17:23;7.7;7.1;5.7;3.8;;;;3.0;70.0;
78792;SPS30;68134;51.984;5.652;2023-12-20T08:19:51;6.4;5.9;4.8;3.3;;;;3.0;68.0;
78792;SPS30;68134;51.984;5.652;2023-12-20T08:22:20;6.0;5.5;4.5;3.1;;;;3.0;66.0;
78792;SPS30;68134;51.984;5.652;2023-12-20T08:24:49;7.4;6.7;5.4;3.6;;;;3.0;64.0;
78792;SPS30;68134;51.984;5.652;2023-12-20T08:27:17;6.1;5.6;4.5;3.0;;;;3.0;61.0;
78792;SPS30;68134;51.984;5.652;2023-12-20T08:29:46;6.7;6.1;4.9;3.2;;;;3.0;63.0;
78792;SPS30;68134;51.984;5.652;2023-12-20T08:32:17;6.4;5.9;4.7;3.2;;;;3.0;65.0;
78792;SPS30;68134;51.984;5.652;2023-12-20T08:34:46;6.8;6.2;5.1;3.5;;;;3.0;91.0;
78792;SPS30;68134;51.984;5.652;2023-12-20T08:37:14;7.5;6.9;5.5;3.6;;;;3.0;84.0;
78792;SPS30;68134;51.984;5.652;2023-12-20T08:39:43;6.9;6.2;5.0;3.2;;;;3.0;81.0;
78792;SPS30;68134;51.984;5.652;2023-12-20T08:42:12;7.4;6.8;5.5;3.7;;;;3.0;80.0;
78792;SPS30;68134;51.984;5.652;2023-12-20T08:44:41;7.2;6.5;5.2;3.3;;;;3.0;79.0;
78792;SPS30;68134;51.984;5.652;2023-12-20T08:47:09;7.0;6.4;5.1;3.4;;;;3.0;77.0;
78792;SPS30;68134;51.984;5.652;2023-12-20T08:49:39;8.4;7.6;6.0;3.9;;;;3.0;75.0;
78792;SPS30;68134;51.984;5.652;2023-12-20T08:52:10;7.4;6.8;5.4;3.5;;;;3.0;81.0;
78792;SPS30;68134;51.984;5.652;2023-12-20T08:54:38;7.7;7.0;5.6;3.7;;;;3.0;83.0;
78792;SPS30;68134;51.984;5.652;2023-12-20T08:57:07;6.8;6.2;5.1;3.5;;;;3.0;82.0;
78792;SPS30;68134;51.984;5.652;2023-12-20T08:59:36;5.7;5.3;4.3;3.1;;;;3.0;77.0;
78792;SPS30;68134;51.984;5.652;2023-12-20T09:02:05;7.0;6.4;5.3;3.7;;;;3.0;63.0;
78792;SPS30;68134;51.984;5.652;2023-12-20T09:04:33;7.3;6.6;5.3;3.5;;;;3.0;57.0;
78792;SPS30;68134;51.984;5.652;2023-12-20T09:07:02;7.3;6.7;5.3;3.5;;;;3.0;58.0;
78792;SPS30;68134;51.984;5.652;2023-12-20T09:09:31;7.0;6.4;5.1;3.4;;;;3.0;59.0;
78792;SPS30;68134;51.984;5.652;2023-12-20T09:12:00;7.4;6.8;5.4;3.5;;;;3.0;61.0;
78792;SPS30;68134;51.984;5.652;2023-12-20T09:14:28;7.4;6.8;5.3;3.4;;;;3.0;63.0;
78792;SPS30;68134;51.984;5.652;2023-12-20T09:16:57;8.1;7.3;5.7;3.5;;;;3.0;66.0;
78792;SPS30;68134;51.984;5.652;2023-12-20T09:19:27;7.2;6.5;5.1;3.2;;;;3.0;73.0;
78792;SPS30;68134;51.984;5.652;2023-12-20T09:21:56;8.1;7.4;5.7;3.6;;;;3.0;79.0;
78792;SPS30;68134;51.984;5.652;2023-12-20T09:24:24;6.8;6.2;4.9;3.1;;;;3.0;79.0;
78792;SPS30;68134;51.984;5.652;2023-12-20T09:26:53;7.8;7.1;5.6;3.6;;;;2.0;83.0;
78792;SPS30;68134;51.984;5.652;2023-12-20T09:29:21;7.7;7.0;5.5;3.5;;;;2.0;85.0;
78792;SPS30;68134;51.984;5.652;2023-12-20T09:31:51;5.8;5.3;4.2;2.7;;;;2.0;86.0;
78792;SPS30;68134;51.984;5.652;2023-12-20T09:34:19;7.0;6.4;5.2;3.5;;;;2.0;86.0;
78792;SPS30;68134;51.984;5.652;2023-12-20T09:36:48;7.0;6.4;5.2;3.5;;;;2.0;85.0;
78792;SPS30;68134;51.984;5.652;2023-12-20T09:39:17;8.5;7.8;6.2;4.0;;;;2.0;85.0;
78792;SPS30;68134;51.984;5.652;2023-12-20T09:41:49;6.5;5.9;4.7;3.0;;;;2.0;85.0;
78792;SPS30;68134;51.984;5.652;2023-12-20T09:44:25;8.5;7.7;6.0;3.7;;;;2.0;86.0;
78792;SPS30;68134;51.984;5.652;2023-12-20T09:46:54;6.7;6.0;4.7;2.9;;;;2.0;90.0;
78792;SPS30;68134;51.984;5.652;2023-12-20T09:49:24;6.5;5.9;4.7;3.0;;;;2.0;91.0;
78792;SPS30;68134;51.984;5.652;2023-12-20T09:51:56;7.2;6.6;5.1;3.3;;;;2.0;109.0;
78792;SPS30;68134;51.984;5.652;2023-12-20T09:54:25;7.2;6.5;5.1;3.2;;;;2.0;105.0;
78792;SPS30;68134;51.984;5.652;2023-12-20T09:56:56;6.9;6.2;4.9;3.0;;;;2.0;101.0;
78792;SPS30;68134;51.984;5.652;2023-12-20T09:59:25;7.7;7.0;5.5;3.5;;;;2.0;98.0;
78792;SPS30;68134;51.984;5.652;2023-12-20T10:01:54;7.7;7.0;5.5;3.5;;;;2.0;101.0;
78792;SPS30;68134;51.984;5.652;2023-12-20T10:04:24;7.1;6.4;5.1;3.3;;;;2.0;105.0;
78792;SPS30;68134;51.984;5.652;2023-12-20T10:06:53;8.0;7.2;5.7;3.6;;;;2.0;106.0;
78792;SPS30;68134;51.984;5.652;2023-12-20T10:09:22;7.5;6.8;5.3;3.4;;;;2.0;104.0;
78792;SPS30;68134;51.984;5.652;2023-12-20T10:11:55;7.2;6.6;5.2;3.4;;;;2.0;106.0;
78792;SPS30;68134;51.984;5.652;2023-12-20T10:14:24;6.4;5.9;4.7;3.1;;;;2.0;107.0;
78792;SPS30;68134;51.984;5.652;2023-12-20T10:16:53;7.3;6.7;5.3;3.5;;;;2.0;107.0;
78792;SPS30;68134;51.984;5.652;2023-12-20T10:19:22;6.3;5.8;4.7;3.1;;;;2.0;106.0;
78792;SPS30;68134;51.984;5.652;2023-12-20T10:21:50;6.8;6.2;4.9;3.2;;;;2.0;99.0;
78792;SPS30;68134;51.984;5.652;2023-12-20T10:24:19;6.1;5.6;4.5;3.0;;;;2.0;101.0;
78792;SPS30;68134;51.984;5.652;2023-12-20T10:26:48;7.7;7.1;5.6;3.7;;;;2.0;102.0;
78792;SPS30;68134;51.984;5.652;2023-12-20T10:29:21;7.9;7.2;5.8;3.8;;;;2.0;103.0;
78792;SPS30;68134;51.984;5.652;2023-12-20T10:31:52;6.6;6.0;4.7;3.0;;;;2.0;105.0;
78792;SPS30;68134;51.984;5.652;2023-12-20T10:34:23;7.9;7.1;5.6;3.5;;;;2.0;106.0;
78792;SPS30;68134;51.984;5.652;2023-12-20T10:36:52;8.4;7.6;5.9;3.6;;;;2.0;115.0;
78792;SPS30;68134;51.984;5.652;2023-12-20T10:39:23;7.3;6.6;5.2;3.4;;;;2.0;121.0;
78792;SPS30;68134;51.984;5.652;2023-12-20T10:41:53;7.5;6.8;5.4;3.4;;;;2.0;103.0;
78792;SPS30;68134;51.984;5.652;2023-12-20T10:44:22;7.2;6.6;5.2;3.4;;;;2.0;102.0;
78792;SPS30;68134;51.984;5.652;2023-12-20T10:46:51;7.8;7.1;5.6;3.7;;;;2.0;93.0;
78792;SPS30;68134;51.984;5.652;2023-12-20T10:49:24;5.9;5.4;4.2;2.7;;;;2.0;81.0;
78792;SPS30;68134;51.984;5.652;2023-12-20T10:51:55;5.7;5.2;4.1;2.7;;;;2.0;68.0;
78792;SPS30;68134;51.984;5.652;2023-12-20T10:54:28;7.3;6.7;5.4;3.6;;;;2.0;64.0;
78792;SPS30;68134;51.984;5.652;2023-12-20T10:56:57;6.2;5.6;4.4;2.8;;;;2.0;56.0;
78792;SPS30;68134;51.984;5.652;2023-12-20T10:59:26;5.6;5.1;4.0;2.6;;;;2.0;56.0;
78792;SPS30;68134;51.984;5.652;2023-12-20T11:01:57;6.7;6.0;4.7;2.9;;;;2.0;46.0;
78792;SPS30;68134;51.984;5.652;2023-12-20T11:04:36;6.8;6.2;4.8;3.0;;;;2.0;43.0;
78792;SPS30;68134;51.984;5.652;2023-12-20T11:07:17;7.0;6.3;5.0;3.2;;;;2.0;43.0;
78792;SPS30;68134;51.984;5.652;2023-12-20T11:09:53;7.0;6.4;5.1;3.3;;;;2.0;42.0;
78792;SPS30;68134;51.984;5.652;2023-12-20T11:12:32;6.9;6.3;4.9;3.1;;;;2.0;37.0;
78792;SPS30;68134;51.984;5.652;2023-12-20T11:15:08;6.7;6.0;4.6;2.8;;;;2.0;34.0;
78792;SPS30;68134;51.984;5.652;2023-12-20T11:17:38;7.0;6.4;4.9;3.1;;;;2.0;34.0;
78792;SPS30;68134;51.984;5.652;2023-12-20T11:20:09;6.4;5.8;4.5;2.9;;;;2.0;34.0;
78792;SPS30;68134;51.984;5.652;2023-12-20T11:22:39;7.6;6.8;5.3;3.3;;;;2.0;35.0;
78792;SPS30;68134;51.984;5.652;2023-12-20T11:25:22;7.0;6.3;4.9;3.1;;;;2.0;35.0;
78792;SPS30;68134;51.984;5.652;2023-12-20T11:28:08;8.1;7.3;5.8;3.7;;;;2.0;33.0;
78792;SPS30;68134;51.984;5.652;2023-12-20T11:30:44;6.5;6.0;4.8;3.1;;;;2.0;30.0;
78792;SPS30;68134;51.984;5.652;2023-12-20T11:33:15;7.1;6.4;5.1;3.3;;;;2.0;29.0;
78792;SPS30;68134;51.984;5.652;2023-12-20T11:35:44;6.8;6.2;4.8;3.1;;;;2.0;30.0;
78792;SPS30;68134;51.984;5.652;2023-12-20T11:38:15;6.9;6.3;4.9;3.1;;;;2.0;31.0;
78792;SPS30;68134;51.984;5.652;2023-12-20T11:40:43;6.4;5.8;4.5;2.8;;;;2.0;29.0;
78792;SPS30;68134;51.984;5.652;2023-12-20T11:43:12;4.9;4.4;3.4;2.1;;;;2.0;24.0;
78792;SPS30;68134;51.984;5.652;2023-12-20T11:46:04;6.8;6.1;4.7;2.8;;;;2.0;23.0;
78792;SPS30;68134;51.984;5.652;2023-12-20T11:48:34;6.2;5.6;4.4;2.7;;;;2.0;23.0;
78792;SPS30;68134;51.984;5.652;2023-12-20T11:51:08;6.2;5.6;4.3;2.6;;;;2.0;23.0;
78792;SPS30;68134;51.984;5.652;2023-12-20T11:53:37;6.5;5.8;4.5;2.7;;;;2.0;23.0;
78792;SPS30;68134;51.984;5.652;2023-12-20T11:56:06;6.5;5.8;4.4;2.6;;;;2.0;23.0;
78792;SPS30;68134;51.984;5.652;2023-12-20T11:58:35;5.1;4.6;3.5;2.1;;;;2.0;21.0;
78792;SPS30;68134;51.984;5.652;2023-12-20T12:01:05;6.1;5.6;4.3;2.7;;;;2.0;18.0;
78792;SPS30;68134;51.984;5.652;2023-12-20T12:03:34;6.0;5.4;4.3;2.7;;;;2.0;17.0;
78792;SPS30;68134;51.984;5.652;2023-12-20T12:06:03;6.4;5.8;4.6;2.9;;;;2.0;16.0;
78792;SPS30;68134;51.984;5.652;2023-12-20T12:08:33;5.6;5.1;4.0;2.6;;;;2.0;16.0;
78792;SPS30;68134;51.984;5.652;2023-12-20T12:11:04;5.4;4.9;3.9;2.5;;;;2.0;16.0;
78792;SPS30;68134;51.984;5.652;2023-12-20T12:13:33;5.4;4.9;3.9;2.5;;;;2.0;16.0;
78792;SPS30;68134;51.984;5.652;2023-12-20T12:16:02;5.0;4.6;3.6;2.3;;;;2.0;17.0;
78792;SPS30;68134;51.984;5.652;2023-12-20T12:18:30;6.8;6.1;4.7;2.8;;;;2.0;21.0;
78792;SPS30;68134;51.984;5.652;2023-12-20T12:21:02;5.5;4.9;3.7;2.2;;;;2.0;30.0;